Home > Products > Valid Products > TAF

000
FTUS43 KGLD 200532
TAFGLD
TAF
KGLD 200532Z 2006/2106 16008KT P6SM VCTS SCT120CB BKN200
     FM200900 19013KT P6SM SCT250
     FM202100 20015G23KT P6SM VCTS SCT110CB
     FM210400 20005KT P6SM SCT200=



000
FTUS43 KGLD 200532
TAFMCK
TAF
KMCK 200532Z 2006/2106 VRB05KT P6SM VCTS SCT120CB BKN200
     FM201200 16006KT P6SM FEW120 SCT200
     FM202200 19016G23KT P6SM VCTS SCT120CB BKN200=



000
FTUS43 KGLD 200532
TAFMCK
TAF
KMCK 200532Z 2006/2106 VRB05KT P6SM VCTS SCT120CB BKN200
     FM201200 16006KT P6SM FEW120 SCT200
     FM202200 19016G23KT P6SM VCTS SCT120CB BKN200=



000
FTUS43 KGLD 200331 AAA
TAFMCK
TAF AMD
KMCK 200331Z 2004/2024 16010KT P6SM VCTS SCT120CB SCT200
      TEMPO 2004/2005 22020G35KT -TSRA BKN110CB
     FM200700 16006KT P6SM FEW120 SCT200
     FM202200 19016G23KT P6SM VCTS SCT120CB=



000
FTUS43 KGLD 200331 AAA
TAFMCK
TAF AMD
KMCK 200331Z 2004/2024 16010KT P6SM VCTS SCT120CB SCT200
      TEMPO 2004/2005 22020G35KT -TSRA BKN110CB
     FM200700 16006KT P6SM FEW120 SCT200
     FM202200 19016G23KT P6SM VCTS SCT120CB=



000
FTUS43 KGLD 192330
TAFGLD
TAF
KGLD 192330Z 2000/2024 19012G17KT P6SM VCTS SCT070CB SCT120
     FM200500 18011KT P6SM FEW120 SCT250
     FM202100 20015G23KT P6SM VCTS SCT070CB SCT150=



000
FTUS43 KGLD 192330
TAFMCK
TAF
KMCK 192330Z 2000/2024 11011KT P6SM SKC
     FM200100 14011KT P6SM VCTS SCT070CB SCT200
     FM200700 16006KT P6SM FEW120 SCT200
     FM202200 19016G23KT P6SM VCTS SCT070CB SCT150=



000
FTUS43 KGLD 192330
TAFMCK
TAF
KMCK 192330Z 2000/2024 11011KT P6SM SKC
     FM200100 14011KT P6SM VCTS SCT070CB SCT200
     FM200700 16006KT P6SM FEW120 SCT200
     FM202200 19016G23KT P6SM VCTS SCT070CB SCT150=



000
FTUS43 KGLD 191739
TAFGLD
TAF
KGLD 191739Z 1918/2018 21010KT P6SM SCT250
     FM192000 18015G20KT P6SM SCT120
     FM200500 17013KT P6SM SCT140 BKN200
     FM200900 18011KT P6SM SCT250
     FM201200 20010KT P6SM SCT150=



000
FTUS43 KGLD 191739
TAFMCK
TAF
KMCK 191739Z 1918/2018 VRB04KT P6SM SKC
     FM192000 14015KT P6SM SCT070 SCT250
     FM200800 VRB06KT P6SM SCT120 BKN200
     FM201500 18010KT P6SM SCT150=



000
FTUS43 KGLD 191739
TAFMCK
TAF
KMCK 191739Z 1918/2018 VRB04KT P6SM SKC
     FM192000 14015KT P6SM SCT070 SCT250
     FM200800 VRB06KT P6SM SCT120 BKN200
     FM201500 18010KT P6SM SCT150=



000
FTUS43 KGLD 191120
TAFMCK
TAF
KMCK 191120Z 1912/2012 VRB05KT P6SM SCT200
     FM191500 10010KT P6SM SCT200
     FM191800 12012KT P6SM SCT050 SCT200
     FM192100 14015G23KT P6SM SCT070 BKN200
     FM200100 14011KT P6SM SCT120 BKN200=



000
FTUS43 KGLD 191120
TAFGLD
TAF
KGLD 191120Z 1912/2012 VRB06KT P6SM BKN200
     FM191800 14007KT P6SM BKN200
     FM192100 18014G22KT P6SM SCT120 BKN200
     FM200000 17013KT P6SM SCT120 BKN200
     FM200900 18011KT P6SM SCT250=



000
FTUS43 KGLD 191120
TAFMCK
TAF
KMCK 191120Z 1912/2012 VRB05KT P6SM SCT200
     FM191500 10010KT P6SM SCT200
     FM191800 12012KT P6SM SCT050 SCT200
     FM192100 14015G23KT P6SM SCT070 BKN200
     FM200100 14011KT P6SM SCT120 BKN200=



000
FTUS43 KGLD 190527
TAFMCK
TAF
KMCK 190527Z 1906/2006 VRB04KT P6SM SCT120
     FM191800 14012G20KT P6SM SKC
     FM200100 16008KT P6SM SCT120=



000
FTUS43 KGLD 190527
TAFGLD
TAF
KGLD 190527Z 1906/2006 16011KT P6SM SCT120
     FM191600 19012G20KT P6SM SKC
     FM200100 17011KT P6SM SCT120=



000
FTUS43 KGLD 190527
TAFMCK
TAF
KMCK 190527Z 1906/2006 VRB04KT P6SM SCT120
     FM191800 14012G20KT P6SM SKC
     FM200100 16008KT P6SM SCT120=



000
FTUS43 KGLD 190344 AAB
TAFGLD
TAF AMD
KGLD 190344Z 1904/1924 06020G30KT P6SM BKN120
     FM190430 12012G20KT P6SM BKN120
     FM190600 VRB05KT P6SM SCT120
     FM191600 18012G20KT P6SM SKC=



000
FTUS43 KGLD 190104 AAA
TAFGLD
TAF AMD
KGLD 190104Z 1901/1924 VRB05KT P6SM SCT120
     FM191600 18012G20KT P6SM SKC=



000
FTUS43 KGLD 182320
TAFMCK
TAF
KMCK 182320Z 1900/1924 08011KT P6SM SCT120
     FM191800 14011KT P6SM SKC=



000
FTUS43 KGLD 182320
TAFGLD
TAF
KGLD 182320Z 1900/1924 23012KT P6SM VCTS SCT100CB
     FM190400 17006KT P6SM SCT150
     FM191600 18012G20KT P6SM SKC=



000
FTUS43 KGLD 182320
TAFMCK
TAF
KMCK 182320Z 1900/1924 08011KT P6SM SCT120
     FM191800 14011KT P6SM SKC=



000
FTUS43 KGLD 181734
TAFMCK
TAF
KMCK 181734Z 1818/1918 VRB06KT P6SM SCT120=



000
FTUS43 KGLD 181734
TAFGLD
TAF
KGLD 181734Z 1818/1918 28009KT P6SM SKC
     FM182300 VRB06KT P6SM VCTS SCT100CB
     FM190800 VRB06KT P6SM SCT150
     FM191400 12010KT P6SM SKC=



000
FTUS43 KGLD 181734
TAFMCK
TAF
KMCK 181734Z 1818/1918 VRB06KT P6SM SCT120=



000
FTUS43 KGLD 181120
TAFMCK
TAF
KMCK 181120Z 1812/1912 VRB06KT P6SM FEW200
     FM181400 02007KT P6SM FEW200
     FM181900 05010KT P6SM FEW200
     FM190500 VRB05KT P6SM SCT100 BKN250 PROB30 1905/1908 -TSRA
      BKN100CB=



000
FTUS43 KGLD 181120
TAFMCK
TAF
KMCK 181120Z 1812/1912 VRB06KT P6SM FEW200
     FM181400 02007KT P6SM FEW200
     FM181900 05010KT P6SM FEW200
     FM190500 VRB05KT P6SM SCT100 BKN250 PROB30 1905/1908 -TSRA
      BKN100CB=



000
FTUS43 KGLD 181120
TAFGLD
TAF
KGLD 181120Z 1812/1912 28007KT P6SM FEW200
     FM181400 33008KT P6SM FEW200
     FM181700 03007KT P6SM SCT200
     FM182100 08007KT P6SM FEW070 SCT200 PROB30 1904/1907 -TSRA
      BKN100CB
     FM190800 13007KT P6SM SCT150 BKN250=



000
FTUS43 KGLD 180520
TAFGLD
TAF
KGLD 180520Z 1806/1906 23008KT P6SM SCT250
     FM181400 01010KT P6SM SCT250
     FM182100 08003KT P6SM VCTS SCT050CB
     FM190300 09008KT P6SM SCT250=



000
FTUS43 KGLD 180520
TAFMCK
TAF
KMCK 180520Z 1806/1906 VRB05KT P6SM SCT150
     FM181100 02010KT P6SM SCT250
     FM182200 07006KT P6SM VCTS SCT050CB
     FM190300 07006KT P6SM SCT250=



000
FTUS43 KGLD 180520
TAFMCK
TAF
KMCK 180520Z 1806/1906 VRB05KT P6SM SCT150
     FM181100 02010KT P6SM SCT250
     FM182200 07006KT P6SM VCTS SCT050CB
     FM190300 07006KT P6SM SCT250=



000
FTUS43 KGLD 172324
TAFGLD
TAF
KGLD 172324Z 1800/1824 18008KT P6SM VCTS SCT100CB BKN250
     FM180300 21008KT P6SM SCT250
     FM181400 01010KT P6SM SCT250
     FM182100 08003KT P6SM VCTS SCT050CB=



000
FTUS43 KGLD 172324
TAFMCK
TAF
KMCK 172324Z 1800/1824 14012KT P6SM VCTS SCT100CB BKN250
     FM180600 VRB05KT P6SM SCT150
     FM181100 02010KT P6SM SCT250
     FM182200 07006KT P6SM VCTS SCT050CB=



000
FTUS43 KGLD 172324
TAFMCK
TAF
KMCK 172324Z 1800/1824 14012KT P6SM VCTS SCT100CB BKN250
     FM180600 VRB05KT P6SM SCT150
     FM181100 02010KT P6SM SCT250
     FM182200 07006KT P6SM VCTS SCT050CB=



000
FTUS43 KGLD 171735
TAFMCK
TAF
KMCK 171735Z 1718/1818 14012G18KT P6SM FEW150
     FM172200 15012G18KT P6SM VCTS SCT100CB BKN250
     FM180600 VRB06KT P6SM SCT150=



000
FTUS43 KGLD 171735
TAFMCK
TAF
KMCK 171735Z 1718/1818 14012G18KT P6SM FEW150
     FM172200 15012G18KT P6SM VCTS SCT100CB BKN250
     FM180600 VRB06KT P6SM SCT150=



000
FTUS43 KGLD 171735
TAFGLD
TAF
KGLD 171735Z 1718/1818 19010KT P6SM SCT150
     FM172000 20007KT P6SM VCTS SCT100CB BKN250
      TEMPO 1722/1801 -TSRA BKN080CB
     FM180400 23008KT P6SM SCT250
     FM181400 36010KT P6SM SCT250=



000
FTUS43 KGLD 171315 AAA
TAFMCK
TAF AMD
KMCK 171315Z 1713/1812 VRB06KT P6SM FEW130
      TEMPO 1713/1715 4SM BR
     FM171700 15010KT P6SM FEW130
     FM172100 15010KT P6SM VCTS FEW060CB SCT100
     FM180700 VRB06KT P6SM SCT150=



000
FTUS43 KGLD 171120
TAFGLD
TAF
KGLD 171120Z 1712/1812 20006KT P6SM FEW130
     FM172000 22007KT P6SM VCTS FEW100CB SCT250 PROB30 1722/1802
      -TSRA SCT100CB BKN250
     FM180600 21008KT P6SM FEW110 SCT250
     FM181100 25007KT P6SM SCT200=



000
FTUS43 KGLD 171120
TAFMCK
TAF
KMCK 171120Z 1712/1812 VRB06KT P6SM FEW130
     FM171700 15010KT P6SM FEW130
     FM172100 15010KT P6SM VCTS FEW060CB SCT100
      TEMPO 1723/1803 -TSRA SCT080CB SCT250
     FM180700 VRB06KT P6SM SCT150=



000
FTUS43 KGLD 171120
TAFMCK
TAF
KMCK 171120Z 1712/1812 VRB06KT P6SM FEW130
     FM171700 15010KT P6SM FEW130
     FM172100 15010KT P6SM VCTS FEW060CB SCT100
      TEMPO 1723/1803 -TSRA SCT080CB SCT250
     FM180700 VRB06KT P6SM SCT150=



    US Dept of Commerce
    National Oceanic and Atmospheric Administration
    National Weather Service
    1325 East West Highway
    Silver Spring, MD 20910
    Page Author: NWS Internet Services Team
Disclaimer
Information Quality
Credits
Glossary
Privacy Policy
Freedom of Information Act (FOIA)
About Us
Career Opportunities